Time;durP1;ratioP1;P1;durP2;ratioP2;P2;SDS_P1;SDS_P2;PMS_P1;PMS_P2;Temp;Humidity;BMP_temperature;BMP_pressure;BME280_temperature;BME280_humidity;BME280_pressure;Samples;Min_cycle;Max_cycle;Signal;HPM_P1;HPM_P2
2023/07/28 00:00:44;;;;;;;1.70;0.88;;;;;;;17.61;55.78;100184.56;5039031;28;20037;-87
2023/07/28 00:06:33;;;;;;;1.75;0.90;;;;;;;17.56;56.13;100185.19;5023391;28;20063;-87
2023/07/28 00:09:13;;;;;;;1.95;0.77;;;;;;;17.58;55.98;100187.72;5050492;28;20040;-87
2023/07/28 00:11:42;;;;;;;1.73;0.90;;;;;;;17.58;55.57;100188.59;5055313;28;20056;-87
2023/07/28 00:14:51;;;;;;;1.10;0.70;;;;;;;17.60;55.59;100188.41;5054639;28;20067;-87
2023/07/28 00:17:29;;;;;;;1.52;0.80;;;;;;;17.59;55.77;100179.25;5034874;28;20104;-86
2023/07/28 00:20:15;;;;;;;2.17;1.00;;;;;;;17.59;55.97;100179.25;5048738;28;20057;-88
2023/07/28 00:22:58;;;;;;;1.70;1.00;;;;;;;17.59;55.71;100190.31;5057512;28;20045;-87
2023/07/28 00:25:44;;;;;;;1.88;0.95;;;;;;;17.58;55.93;100184.97;5072009;28;20092;-87
2023/07/28 00:28:16;;;;;;;2.25;1.08;;;;;;;17.58;56.08;100177.53;5044465;28;20045;-87
2023/07/28 00:30:50;;;;;;;1.80;0.90;;;;;;;17.62;55.85;100181.63;5039214;28;20045;-87
2023/07/28 00:33:18;;;;;;;1.30;0.77;;;;;;;17.59;55.73;100176.47;5039290;28;20056;-86
2023/07/28 00:35:47;;;;;;;1.60;1.00;;;;;;;17.59;55.69;100176.47;5038977;28;20041;-87
2023/07/28 00:38:15;;;;;;;2.17;1.20;;;;;;;17.58;56.04;100180.28;5040435;28;20041;-86
2023/07/28 00:40:45;;;;;;;2.38;1.00;;;;;;;17.59;55.73;100176.47;5043905;28;20519;-87
2023/07/28 00:43:14;;;;;;;1.88;0.80;;;;;;;17.59;55.90;100178.38;5047919;28;20443;-87
2023/07/28 00:45:42;;;;;;;2.83;1.10;;;;;;;17.60;55.98;100182.88;5046693;28;20044;-88
2023/07/28 00:48:15;;;;;;;2.58;1.00;;;;;;;17.60;55.98;100180.97;5048646;28;20400;-87
2023/07/28 00:50:46;;;;;;;2.20;1.10;;;;;;;17.60;56.05;100174.56;5067696;28;20103;-86
2023/07/28 00:53:15;;;;;;;1.88;1.00;;;;;;;17.60;56.00;100175.41;5050353;28;20041;-87
2023/07/28 00:55:43;;;;;;;2.10;1.00;;;;;;;17.58;56.00;100171.13;5047142;28;20055;-87
2023/07/28 00:58:11;;;;;;;1.65;0.82;;;;;;;17.59;56.15;100176.47;5044789;28;20045;-87
2023/07/28 01:00:39;;;;;;;2.22;1.10;;;;;;;17.58;56.17;100176.66;5044037;28;20100;-86
2023/07/28 01:03:08;;;;;;;2.67;0.98;;;;;;;17.59;56.23;100181.16;5045421;28;20040;-86
2023/07/28 01:05:48;;;;;;;2.60;1.02;;;;;;;17.62;56.13;100175.22;5050730;28;20051;-86
2023/07/28 01:08:26;;;;;;;2.17;1.00;;;;;;;17.63;56.28;100185.25;5060232;28;20044;-86
2023/07/28 01:10:54;;;;;;;2.90;0.95;;;;;;;17.58;56.36;100180.28;5041787;28;20053;-87
2023/07/28 01:13:23;;;;;;;1.42;0.90;;;;;;;17.61;56.10;100179.03;5049071;28;20049;-87
2023/07/28 01:15:54;;;;;;;1.35;1.00;;;;;;;17.60;56.45;100175.41;5046739;28;20045;-86
2023/07/28 01:18:23;;;;;;;2.05;1.00;;;;;;;17.58;56.13;100171.13;5058748;28;20061;-87
2023/07/28 01:21:02;;;;;;;2.80;1.00;;;;;;;17.60;56.43;100172.66;5037219;28;20041;-87
2023/07/28 01:23:42;;;;;;;1.92;0.93;;;;;;;17.62;56.59;100172.47;5046338;28;20423;-87
2023/07/28 01:26:13;;;;;;;1.83;1.10;;;;;;;17.60;56.29;100177.31;5059181;28;20044;-86
2023/07/28 01:28:44;;;;;;;3.22;1.08;;;;;;;17.62;56.72;100173.31;5043354;28;20123;-86
2023/07/28 01:31:13;;;;;;;2.03;1.00;;;;;;;17.59;56.33;100170.94;5057021;28;20048;-87
2023/07/28 01:33:41;;;;;;;2.10;0.93;;;;;;;17.60;56.46;100172.66;5037871;28;20045;-86
2023/07/28 01:36:10;;;;;;;1.52;0.90;;;;;;;17.61;56.50;100170.75;5062212;28;20075;-87
2023/07/28 01:38:38;;;;;;;1.60;1.00;;;;;;;17.61;56.12;100173.50;5045450;28;20243;-87
2023/07/28 01:41:06;;;;;;;2.10;0.90;;;;;;;17.59;56.28;100170.94;5044080;28;20044;-86
2023/07/28 01:43:35;;;;;;;1.55;1.10;;;;;;;17.59;56.46;100168.16;5025090;28;20422;-86
2023/07/28 01:46:05;;;;;;;1.70;1.08;;;;;;;17.62;56.14;100173.31;5042527;28;20041;-87
2023/07/28 01:48:33;;;;;;;1.20;0.82;;;;;;;17.61;56.47;100170.75;5037197;28;20044;-87
2023/07/28 01:51:01;;;;;;;1.92;1.00;;;;;;;17.60;56.43;100169.88;5044210;28;20059;-87
2023/07/28 01:53:29;;;;;;;2.72;1.00;;;;;;;17.61;56.26;100174.38;5038681;28;20033;-86
2023/07/28 01:55:57;;;;;;;2.45;1.08;;;;;;;17.61;56.31;100159.69;5039849;28;20048;-86
2023/07/28 01:58:26;;;;;;;2.45;1.10;;;;;;;17.61;56.51;100168.84;5036570;28;20389;-86
2023/07/28 02:00:54;;;;;;;1.85;1.00;;;;;;;17.60;56.85;100166.25;5036702;28;20063;-87
2023/07/28 02:03:24;;;;;;;2.20;1.10;;;;;;;17.64;56.69;100159.28;5046095;28;20080;-86
2023/07/28 02:05:52;;;;;;;2.28;1.10;;;;;;;17.61;56.95;100156.91;5058465;28;20092;-87
2023/07/28 02:08:20;;;;;;;1.80;1.05;;;;;;;17.61;56.84;100159.69;5061887;28;20036;-86
2023/07/28 02:10:48;;;;;;;2.10;1.00;;;;;;;17.61;56.92;100156.91;5056672;28;20041;-87
2023/07/28 02:13:16;;;;;;;3.22;1.08;;;;;;;17.60;57.04;100152.44;5046115;28;20049;-86
2023/07/28 02:15:45;;;;;;;2.25;1.20;;;;;;;17.61;56.77;100166.06;5070217;28;20158;-85
2023/07/28 02:18:13;;;;;;;2.17;1.20;;;;;;;17.62;56.95;100158.63;5043856;28;20048;-86
2023/07/28 02:20:42;;;;;;;2.65;1.20;;;;;;;17.62;57.03;100153.09;5064101;28;20132;-85
2023/07/28 02:23:43;;;;;;;1.85;1.00;;;;;;;17.63;57.13;100168.66;5044800;28;20045;-88
2023/07/28 02:26:33;;;;;;;1.98;1.10;;;;;;;17.60;57.23;100174.56;5027138;28;20048;-87
2023/07/28 03:16:29;;;;;;;2.45;1.30;;;;;;;17.42;57.80;100183.31;4730891;30;20056;-88
2023/07/28 03:19:29;;;;;;;1.83;1.10;;;;;;;17.44;57.70;100194.19;4907341;28;20418;-88
2023/07/28 03:21:59;;;;;;;2.58;1.30;;;;;;;17.45;57.37;100185.69;5034169;28;20051;-87
2023/07/28 03:24:27;;;;;;;2.85;1.48;;;;;;;17.45;57.46;100188.44;5038524;28;20036;-87
2023/07/28 03:26:55;;;;;;;2.35;1.25;;;;;;;17.45;57.95;100187.59;5040633;28;20033;-88
2023/07/28 03:29:24;;;;;;;2.10;1.17;;;;;;;17.46;57.59;100194.84;5041216;28;20136;-88
2023/07/28 03:34:50;;;;;;;2.00;1.30;;;;;;;17.46;57.84;100187.41;5042287;28;20111;-71
2023/07/28 03:37:21;;;;;;;2.08;1.25;;;;;;;17.49;57.90;100199.97;5036058;28;20040;-71
2023/07/28 03:39:50;;;;;;;2.05;1.20;;;;;;;17.46;58.14;100201.25;5054813;28;20411;-71
2023/07/28 03:42:21;;;;;;;1.70;1.00;;;;;;;17.48;57.81;100195.50;5034607;28;20061;-71
2023/07/28 03:45:02;;;;;;;1.75;1.30;;;;;;;17.46;57.91;100187.41;5020503;28;20138;-70
2023/07/28 03:47:30;;;;;;;1.52;1.10;;;;;;;17.48;58.33;100195.50;5048474;28;20033;-70
2023/07/28 03:49:58;;;;;;;2.47;1.20;;;;;;;17.47;58.12;100197.41;5051279;28;20065;-70
2023/07/28 03:52:27;;;;;;;1.88;1.13;;;;;;;17.48;57.87;100204.66;5051837;28;20041;-70
2023/07/28 03:54:55;;;;;;;2.50;1.50;;;;;;;17.47;58.02;100202.97;5024125;28;20068;-70
2023/07/28 03:57:24;;;;;;;1.90;1.00;;;;;;;17.48;57.99;100201.06;5026073;28;20507;-70
2023/07/28 03:59:52;;;;;;;1.60;1.10;;;;;;;17.48;58.00;100210.22;5042769;28;20446;-70
2023/07/28 04:02:20;;;;;;;2.60;1.27;;;;;;;17.47;58.19;100202.97;5032210;28;20130;-70
2023/07/28 04:04:54;;;;;;;2.40;1.38;;;;;;;17.51;58.77;100207.03;5047659;28;20044;-70
2023/07/28 04:07:22;;;;;;;2.20;1.02;;;;;;;17.48;58.00;100201.06;5027505;28;20053;-70
2023/07/28 04:09:51;;;;;;;2.35;1.27;;;;;;;17.50;58.20;100197.00;5045958;28;20496;-70
2023/07/28 04:12:19;;;;;;;1.83;0.95;;;;;;;17.48;57.96;100203.81;5047761;28;20044;-70
2023/07/28 04:14:47;;;;;;;2.83;1.25;;;;;;;17.48;58.13;100204.66;5040095;28;20049;-70
2023/07/28 04:17:15;;;;;;;1.88;1.20;;;;;;;17.48;58.53;100204.66;5038133;28;20675;-71
2023/07/28 04:19:43;;;;;;;1.92;1.00;;;;;;;17.48;58.44;100207.44;5028477;28;20044;-70
2023/07/28 04:22:11;;;;;;;1.88;1.00;;;;;;;17.48;58.39;100210.22;5034695;28;20194;-71
2023/07/28 04:24:40;;;;;;;1.70;1.23;;;;;;;17.49;58.24;100202.72;5040788;28;20048;-70
2023/07/28 04:27:09;;;;;;;1.42;0.90;;;;;;;17.50;58.57;100204.44;5048191;28;20045;-70
2023/07/28 04:29:37;;;;;;;2.03;0.98;;;;;;;17.48;58.37;100201.06;5048762;28;20361;-70
2023/07/28 04:32:08;;;;;;;1.80;0.93;;;;;;;17.48;58.72;100212.13;5035320;28;20519;-70
2023/07/28 04:34:36;;;;;;;1.38;0.90;;;;;;;17.47;58.33;100210.41;5049385;28;20114;-70
2023/07/28 04:37:27;;;;;;;0.85;0.70;;;;;;;17.45;58.49;100213.34;5041441;28;20049;-70
2023/07/28 04:39:58;;;;;;;1.48;0.90;;;;;;;17.46;58.25;100211.44;5050627;28;20020;-70
2023/07/28 04:42:33;;;;;;;1.65;0.90;;;;;;;17.47;58.72;100210.41;5030521;28;20543;-70
2023/07/28 04:45:01;;;;;;;2.38;1.02;;;;;;;17.46;58.80;100214.22;5043965;28;20087;-70
2023/07/28 04:47:30;;;;;;;1.08;0.75;;;;;;;17.46;58.44;100220.59;5046157;28;20036;-70
2023/07/28 04:49:58;;;;;;;1.33;0.85;;;;;;;17.46;58.71;100214.22;5050060;28;20508;-70
2023/07/28 04:52:54;;;;;;;1.17;0.80;;;;;;;17.44;58.92;100216.31;5047784;28;20416;-71
2023/07/28 04:55:41;;;;;;;1.50;0.63;;;;;;;17.44;58.52;100217.16;5026295;28;20045;-73
2023/07/28 04:58:10;;;;;;;1.65;0.70;;;;;;;17.47;58.70;100216.78;5041548;28;20064;-71
2023/07/28 05:00:50;;;;;;;2.03;0.90;;;;;;;17.45;58.77;100215.25;5041272;28;20088;-71
2023/07/28 05:03:18;;;;;;;1.77;0.80;;;;;;;17.46;58.88;100220.59;5013486;28;20051;-72
2023/07/28 05:05:57;;;;;;;1.00;0.55;;;;;;;17.47;58.99;100227.00;5020585;28;20218;-71
2023/07/28 05:08:25;;;;;;;1.23;0.60;;;;;;;17.47;58.76;100224.22;5017830;28;20281;-72
2023/07/28 05:10:54;;;;;;;1.52;0.70;;;;;;;17.48;59.06;100228.72;5035431;28;20147;-71
2023/07/28 05:13:23;;;;;;;1.42;0.70;;;;;;;17.50;58.86;100223.81;5033705;28;20596;-71
2023/07/28 05:15:55;;;;;;;1.10;0.70;;;;;;;17.47;59.11;100227.84;5030974;28;20167;-71
2023/07/28 05:18:49;;;;;;;1.73;0.70;;;;;;;17.47;59.04;100230.63;5012912;28;20387;-72
2023/07/28 05:21:49;;;;;;;1.48;0.90;;;;;;;17.48;59.25;100237.00;5010377;28;20148;-71
2023/07/28 05:24:19;;;;;;;1.70;0.90;;;;;;;17.49;58.68;100231.25;5038390;28;20049;-71
2023/07/28 05:26:47;;;;;;;0.93;0.77;;;;;;;17.49;59.08;100236.78;5015282;28;20369;-70
2023/07/28 05:29:17;;;;;;;1.13;0.80;;;;;;;17.52;58.94;100241.09;5040485;28;20041;-71
2023/07/28 05:31:46;;;;;;;2.25;0.90;;;;;;;17.50;58.97;100237.66;5022185;28;20077;-71
2023/07/28 05:34:26;;;;;;;2.00;0.80;;;;;;;17.49;59.19;100236.78;5050511;28;20060;-71
2023/07/28 05:36:54;;;;;;;1.92;0.77;;;;;;;17.50;59.18;100249.56;5046167;28;20065;-71
2023/07/28 05:39:25;;;;;;;1.67;0.77;;;;;;;17.51;59.12;100253.19;5030159;28;20632;-72
2023/07/28 05:41:53;;;;;;;3.08;1.17;;;;;;;17.52;59.30;100255.78;5037127;28;20066;-72
2023/07/28 05:44:22;;;;;;;1.23;0.80;;;;;;;17.54;59.38;100261.13;5044116;28;20038;-72
2023/07/28 05:46:50;;;;;;;2.55;0.90;;;;;;;17.53;59.50;100259.41;5044509;28;20074;-72
2023/07/28 05:49:18;;;;;;;1.38;0.88;;;;;;;17.53;59.61;100256.63;5046680;28;20036;-70
2023/07/28 05:51:46;;;;;;;1.55;0.75;;;;;;;17.54;59.51;100263.91;5042243;28;20138;-72
2023/07/28 05:54:15;;;;;;;1.13;0.70;;;;;;;17.54;59.19;100261.13;5029728;28;20528;-73
2023/07/28 05:56:44;;;;;;;1.88;0.80;;;;;;;17.55;59.12;100268.38;5033926;28;20055;-73
2023/07/28 05:59:12;;;;;;;3.33;1.10;;;;;;;17.56;59.49;100267.34;5051163;28;20064;-73
2023/07/28 06:01:41;;;;;;;2.53;0.88;;;;;;;17.58;59.56;100271.59;5052676;28;20246;-73
2023/07/28 06:04:28;;;;;;;1.77;1.00;;;;;;;17.56;59.70;100272.88;5050478;28;20051;-73
2023/07/28 06:06:59;;;;;;;1.67;0.90;;;;;;;17.58;59.76;100273.50;5053275;28;20048;-72
2023/07/28 06:09:27;;;;;;;4.68;0.98;;;;;;;17.58;59.76;100274.38;5050651;28;20049;-73
2023/07/28 06:11:55;;;;;;;1.67;1.05;;;;;;;17.59;59.49;100272.47;5050422;28;20512;-73
2023/07/28 06:14:26;;;;;;;1.45;0.90;;;;;;;17.60;59.72;100274.16;5039005;28;20048;-73
2023/07/28 06:16:56;;;;;;;2.55;1.20;;;;;;;17.61;59.70;100274.00;5035122;28;20048;-73
2023/07/28 06:19:27;;;;;;;1.38;0.77;;;;;;;17.62;59.56;100272.06;5043029;28;20098;-73
2023/07/28 06:21:55;;;;;;;1.77;1.00;;;;;;;17.62;59.96;100278.47;5042687;28;20084;-73
2023/07/28 06:24:23;;;;;;;1.13;0.75;;;;;;;17.64;59.85;100272.75;5052228;28;20116;-73
2023/07/28 06:26:51;;;;;;;2.45;1.10;;;;;;;17.65;59.71;100277.19;5045385;28;20048;-73
2023/07/28 06:29:20;;;;;;;2.60;1.17;;;;;;;17.65;59.91;100282.75;5034880;28;20037;-73
2023/07/28 06:31:47;;;;;;;1.90;1.00;;;;;;;17.66;59.68;100287.22;5047541;28;20399;-71
2023/07/28 06:34:19;;;;;;;1.95;1.00;;;;;;;17.70;59.70;100288.56;5043073;28;20521;-71
2023/07/28 06:36:47;;;;;;;2.22;1.15;;;;;;;17.68;59.47;100287.91;5039581;28;20049;-71
2023/07/28 06:39:15;;;;;;;1.52;0.95;;;;;;;17.69;60.02;100292.38;5027549;28;20381;-71
2023/07/28 06:41:43;;;;;;;1.70;1.13;;;;;;;17.70;60.01;100292.19;5044103;28;20042;-71
2023/07/28 06:44:13;;;;;;;1.50;0.82;;;;;;;17.71;59.58;100295.81;5044771;28;20055;-71
2023/07/28 06:46:41;;;;;;;1.85;0.90;;;;;;;17.72;59.94;100303.06;5029171;28;20041;-71
2023/07/28 06:49:12;;;;;;;2.55;1.10;;;;;;;17.73;59.87;100307.56;5043277;28;20045;-71
2023/07/28 06:51:42;;;;;;;1.98;0.90;;;;;;;17.75;59.73;100311.84;5046750;28;20399;-71
2023/07/28 06:54:12;;;;;;;2.60;0.95;;;;;;;17.75;59.80;100316.53;5024950;28;20120;-71
2023/07/28 06:56:40;;;;;;;2.08;0.90;;;;;;;17.75;60.08;100313.78;5048278;28;20102;-71
2023/07/28 06:59:09;;;;;;;1.83;0.95;;;;;;;17.76;60.00;100312.72;5053614;28;20053;-71
2023/07/28 07:01:46;;;;;;;1.60;0.90;;;;;;;17.76;59.78;100321.03;5040279;28;20330;-71
2023/07/28 07:04:14;;;;;;;1.60;0.80;;;;;;;17.78;59.71;100321.69;5046111;28;20102;-71
2023/07/28 07:06:44;;;;;;;2.60;0.70;;;;;;;17.81;60.07;100326.84;5052420;28;20033;-71
2023/07/28 07:09:14;;;;;;;1.67;0.80;;;;;;;17.79;59.84;100328.94;5044242;28;20037;-71
2023/07/28 07:11:42;;;;;;;1.70;0.80;;;;;;;17.81;60.08;100331.53;5046833;28;20487;-72
2023/07/28 07:14:10;;;;;;;1.30;0.75;;;;;;;17.81;60.14;100332.38;5051395;28;20056;-71
2023/07/28 07:16:38;;;;;;;1.20;0.77;;;;;;;17.82;60.32;100330.44;5044191;28;20131;-71
2023/07/28 07:19:05;;;;;;;1.10;0.80;;;;;;;17.83;60.01;100334.94;5048383;28;20420;-71
2023/07/28 07:21:33;;;;;;;2.28;1.00;;;;;;;17.84;60.11;100331.13;5047165;28;20045;-71
2023/07/28 07:24:03;;;;;;;1.35;0.70;;;;;;;17.87;60.25;100333.50;5045841;28;20404;-71
2023/07/28 07:26:31;;;;;;;1.35;0.80;;;;;;;17.86;60.10;100331.78;5049289;28;20153;-71
2023/07/28 07:28:59;;;;;;;1.40;0.70;;;;;;;17.88;60.07;100338.00;5044124;28;20042;-71
2023/07/28 07:31:28;;;;;;;1.60;1.00;;;;;;;17.89;60.27;100334.19;5046872;28;20119;-71
2023/07/28 07:33:56;;;;;;;1.33;0.88;;;;;;;17.89;60.20;100337.81;5028210;28;20484;-71
2023/07/28 07:36:23;;;;;;;2.33;1.00;;;;;;;17.90;60.12;100342.28;5054323;28;20819;-71
2023/07/28 07:38:51;;;;;;;1.63;0.90;;;;;;;17.92;60.48;100345.72;5057590;28;20060;-71
2023/07/28 07:41:23;;;;;;;2.13;1.00;;;;;;;17.96;60.31;100344.28;5044538;28;20065;-71
2023/07/28 07:43:54;;;;;;;1.80;1.00;;;;;;;17.97;60.15;100342.38;5052285;28;20395;-72
2023/07/28 07:46:22;;;;;;;1.52;0.90;;;;;;;17.97;60.33;100348.78;5053697;28;20090;-71
2023/07/28 07:48:50;;;;;;;2.03;1.05;;;;;;;17.98;60.11;100360.66;5038436;28;20139;-70
2023/07/28 07:51:18;;;;;;;1.80;1.00;;;;;;;17.99;60.49;100351.31;5031649;28;20271;-71
2023/07/28 07:53:46;;;;;;;1.85;1.13;;;;;;;18.00;60.55;100353.91;5052471;28;20049;-70
2023/07/28 07:56:14;;;;;;;2.55;1.00;;;;;;;18.02;60.65;100359.25;5049057;28;20586;-70
2023/07/28 07:58:43;;;;;;;1.65;0.90;;;;;;;18.06;60.33;100360.59;5040654;28;20438;-71
2023/07/28 08:01:11;;;;;;;2.30;1.13;;;;;;;18.05;60.43;100356.09;5044430;28;20052;-70
2023/07/28 08:03:40;;;;;;;3.20;1.20;;;;;;;18.08;60.18;100366.75;5045852;28;20114;-71
2023/07/28 08:06:11;;;;;;;2.45;1.33;;;;;;;18.08;60.26;100362.09;5041659;28;20500;-71
2023/07/28 08:08:39;;;;;;;2.03;1.20;;;;;;;18.09;60.56;100363.81;5041589;28;20512;-74
2023/07/28 08:11:11;;;;;;;2.50;1.40;;;;;;;18.11;60.40;100371.91;5050495;28;20046;-73
2023/07/28 08:13:39;;;;;;;2.45;1.33;;;;;;;18.12;60.39;100368.09;5048431;28;20049;-73
2023/07/28 08:16:09;;;;;;;2.20;1.40;;;;;;;18.16;60.56;100366.66;5062762;28;20044;-72
2023/07/28 08:18:37;;;;;;;3.40;1.40;;;;;;;18.14;60.32;100372.38;5069350;28;20051;-73
2023/07/28 08:21:04;;;;;;;2.40;1.50;;;;;;;18.15;60.06;100371.31;5069989;28;20098;-73
2023/07/28 08:23:32;;;;;;;2.90;1.58;;;;;;;18.17;60.01;100378.59;5069778;28;20091;-72
2023/07/28 08:26:02;;;;;;;3.35;1.50;;;;;;;18.19;60.17;100380.09;5069810;28;20115;-72
2023/07/28 08:28:30;;;;;;;3.85;1.60;;;;;;;18.19;60.43;100379.25;5064342;28;20479;-73
2023/07/28 08:30:58;;;;;;;2.85;1.42;;;;;;;18.20;60.08;100380.97;5070113;28;20079;-74
2023/07/28 08:33:28;;;;;;;3.53;1.85;;;;;;;18.23;60.29;100380.56;5048514;28;20049;-73
2023/07/28 08:35:56;;;;;;;4.32;1.80;;;;;;;18.22;60.03;100381.63;5031551;28;20057;-73
2023/07/28 08:38:24;;;;;;;3.38;1.90;;;;;;;18.22;59.98;100381.63;5049046;28;20140;-73
2023/07/28 08:40:52;;;;;;;2.75;1.85;;;;;;;18.24;60.09;100385.03;5048928;28;20061;-73
2023/07/28 08:43:20;;;;;;;2.45;1.80;;;;;;;18.24;60.49;100383.13;5051470;28;20140;-75
2023/07/28 08:45:48;;;;;;;3.33;1.77;;;;;;;18.26;60.19;100385.72;5068577;28;20054;-72
2023/07/28 08:48:15;;;;;;;3.15;2.03;;;;;;;18.28;60.24;100391.94;5068893;28;20543;-73
2023/07/28 08:50:45;;;;;;;3.08;1.77;;;;;;;18.31;60.40;100385.97;5067988;28;20526;-73
2023/07/28 08:53:13;;;;;;;2.70;1.70;;;;;;;18.31;60.27;100394.28;5068362;28;20048;-73
2023/07/28 08:55:42;;;;;;;3.75;1.92;;;;;;;18.32;60.37;100391.31;5029258;28;20091;-73
2023/07/28 08:58:18;;;;;;;3.08;1.92;;;;;;;18.39;60.38;100396.97;5038708;28;20053;-73
2023/07/28 09:00:49;;;;;;;2.45;1.77;;;;;;;18.38;60.56;100389.69;5049368;28;20049;-73
2023/07/28 09:03:17;;;;;;;2.85;1.75;;;;;;;18.42;60.51;100404.88;5031395;28;20067;-74
2023/07/28 09:05:47;;;;;;;2.53;1.75;;;;;;;18.45;60.53;100398.94;5063702;28;20106;-73
2023/07/28 09:08:16;;;;;;;2.65;1.70;;;;;;;18.47;60.68;100394.06;5068186;28;20051;-74
2023/07/28 09:10:45;;;;;;;2.60;1.52;;;;;;;18.49;60.28;100403.91;5053787;28;20064;-73
2023/07/28 09:13:14;;;;;;;2.67;1.80;;;;;;;18.54;60.53;100399.69;5049562;28;20045;-73
2023/07/28 09:15:45;;;;;;;2.95;1.63;;;;;;;18.52;60.37;100400.75;5064120;28;20568;-73
2023/07/28 09:18:15;;;;;;;3.22;1.70;;;;;;;18.58;60.30;100399.09;5069157;28;20095;-73
2023/07/28 09:20:43;;;;;;;2.83;1.60;;;;;;;18.61;59.98;100406.16;5068252;28;20059;-73
2023/07/28 09:23:16;;;;;;;3.50;1.80;;;;;;;18.65;60.18;100399.16;5050380;28;20056;-73
2023/07/28 09:25:43;;;;;;;3.10;1.80;;;;;;;18.63;59.98;100401.28;5068470;28;20040;-73
2023/07/28 09:28:11;;;;;;;2.30;1.50;;;;;;;18.68;60.09;100401.53;5069357;28;20117;-73
2023/07/28 09:30:47;;;;;;;2.78;1.83;;;;;;;18.74;60.34;100406.28;5065715;28;20051;-73
2023/07/28 09:33:30;;;;;;;2.60;1.40;;;;;;;18.74;59.73;100403.50;5068815;28;20130;-73
2023/07/28 09:35:58;;;;;;;;;;;;;;;18.46;60.66;100406.19;5067386;28;20044;-74
2023/07/28 09:38:29;;;;;;;2.50;1.60;;;;;;;18.75;59.85;100405.22;5067254;28;20291;-74
2023/07/28 09:40:59;;;;;;;2.03;1.55;;;;;;;18.81;59.67;100408.06;5068258;28;20067;-73
2023/07/28 09:43:27;;;;;;;2.28;1.60;;;;;;;18.83;59.77;100403.19;5048063;28;20409;-74
2023/07/28 09:45:56;;;;;;;2.80;1.55;;;;;;;18.87;59.89;100404.50;5043041;28;20461;-75
2023/07/28 09:48:25;;;;;;;2.33;1.60;;;;;;;18.92;60.07;100408.59;5047825;28;20051;-75
2023/07/28 09:50:53;;;;;;;2.90;1.48;;;;;;;18.93;59.72;100407.53;5028783;28;20784;-74
2023/07/28 09:53:22;;;;;;;2.42;1.58;;;;;;;18.96;59.87;100407.16;5045198;28;20045;-74
2023/07/28 09:55:51;;;;;;;1.75;1.40;;;;;;;19.00;59.41;100397.34;5046423;28;20441;-75
2023/07/28 09:58:22;;;;;;;1.92;1.30;;;;;;;19.04;59.64;100395.91;5043089;28;20077;-75
2023/07/28 10:00:51;;;;;;;2.03;1.50;;;;;;;19.05;59.87;100401.22;5045884;28;20508;-75
2023/07/28 10:03:19;;;;;;;2.20;1.40;;;;;;;19.08;59.80;100392.50;5051765;28;20466;-74
2023/07/28 10:05:48;;;;;;;2.90;1.50;;;;;;;19.13;59.74;100394.69;5045490;28;20129;-74
2023/07/28 10:08:17;;;;;;;2.70;1.38;;;;;;;19.18;60.04;100395.81;5037927;28;20064;-74
2023/07/28 10:10:45;;;;;;;2.00;1.40;;;;;;;19.23;60.01;100389.66;5046618;28;20106;-74
2023/07/28 10:13:22;;;;;;;2.05;1.40;;;;;;;19.33;59.98;100398.50;5049366;28;20127;-74
2023/07/28 10:15:51;;;;;;;2.40;1.33;;;;;;;19.37;59.86;100399.81;5030118;28;20411;-74
2023/07/28 10:18:21;;;;;;;2.25;1.40;;;;;;;19.45;59.90;100404.34;5038628;28;20124;-74
2023/07/28 10:20:51;;;;;;;1.88;1.38;;;;;;;19.49;59.64;100391.75;5046278;28;20049;-74
2023/07/28 10:23:22;;;;;;;2.05;1.35;;;;;;;19.58;59.24;100394.19;5032309;28;20075;-74
2023/07/28 10:25:58;;;;;;;2.47;1.50;;;;;;;19.63;58.91;100405.50;5049903;28;20045;-74
2023/07/28 10:28:30;;;;;;;2.20;1.42;;;;;;;19.70;59.10;100399.16;5051700;28;20033;-75
2023/07/28 10:31:00;;;;;;;3.05;1.48;;;;;;;19.75;58.76;100402.16;5049404;28;20500;-75
2023/07/28 10:33:33;;;;;;;3.08;1.50;;;;;;;19.82;58.33;100409.47;5055778;28;20578;-75
2023/07/28 10:36:12;;;;;;;2.00;1.40;;;;;;;19.86;58.26;100407.16;5048572;28;20052;-74
2023/07/28 10:38:40;;;;;;;2.50;1.60;;;;;;;19.87;58.46;100411.66;5045336;28;20037;-75
2023/07/28 10:41:10;;;;;;;2.95;1.35;;;;;;;19.92;58.28;100412.75;5045604;28;20072;-75
2023/07/28 10:43:40;;;;;;;2.55;1.50;;;;;;;19.94;58.35;100412.56;5048995;28;20067;-74
2023/07/28 10:46:09;;;;;;;2.17;1.38;;;;;;;19.96;58.04;100424.31;5041660;28;20051;-75
2023/07/28 10:48:41;;;;;;;3.17;1.48;;;;;;;19.95;58.24;100417.88;5050767;28;20047;-75
2023/07/28 10:51:11;;;;;;;2.05;1.50;;;;;;;19.93;58.63;100419.19;5046766;28;20036;-75
2023/07/28 10:53:39;;;;;;;1.95;1.35;;;;;;;19.97;58.62;100415.75;5050036;28;20102;-75
2023/07/28 10:56:09;;;;;;;2.15;1.50;;;;;;;19.99;58.77;100416.41;5036333;28;20742;-74
2023/07/28 10:58:40;;;;;;;1.70;1.10;;;;;;;20.04;58.91;100417.75;5048012;28;20061;-74
2023/07/28 11:01:08;;;;;;;1.80;1.30;;;;;;;20.04;59.11;100420.53;5050806;28;20037;-74
2023/07/28 11:03:36;;;;;;;1.88;1.00;;;;;;;20.07;58.75;100411.75;5052159;28;20057;-74
2023/07/28 11:06:06;;;;;;;1.52;1.10;;;;;;;20.11;59.10;100422.25;5034367;28;20128;-75
2023/07/28 11:08:34;;;;;;;1.70;1.00;;;;;;;20.14;59.04;100427.38;5051874;28;20110;-75
2023/07/28 11:11:05;;;;;;;1.58;1.15;;;;;;;20.20;58.63;100420.16;5056923;28;20040;-75
2023/07/28 11:13:33;;;;;;;1.48;0.90;;;;;;;20.22;58.77;100412.44;5048391;28;20052;-76
2023/07/28 11:16:10;;;;;;;1.70;1.00;;;;;;;20.27;58.67;100413.56;5041752;28;20072;-75
2023/07/28 11:18:38;;;;;;;4.80;1.10;;;;;;;20.31;58.53;100408.41;5042712;28;20065;-66
2023/07/28 11:21:06;;;;;;;1.27;0.90;;;;;;;20.36;58.43;100400.31;5039333;28;20041;-65
2023/07/28 11:23:34;;;;;;;1.65;1.00;;;;;;;20.42;58.09;100410.59;5037555;28;20432;-65
2023/07/28 11:26:03;;;;;;;1.48;0.98;;;;;;;20.49;58.15;100407.81;5038908;28;20056;-65
2023/07/28 11:28:31;;;;;;;1.50;0.98;;;;;;;20.55;57.98;100405.06;5038712;28;20059;-65
2023/07/28 11:31:00;;;;;;;1.30;1.00;;;;;;;20.62;57.66;100400.38;5048179;28;20056;-65
2023/07/28 11:33:30;;;;;;;1.40;1.00;;;;;;;20.72;57.80;100399.97;5045888;28;20221;-65
2023/07/28 11:35:58;;;;;;;1.30;0.98;;;;;;;20.76;57.43;100401.28;5049349;28;20099;-65
2023/07/28 11:38:29;;;;;;;1.30;0.90;;;;;;;20.85;57.11;100405.59;5045821;28;20132;-65
2023/07/28 11:40:57;;;;;;;1.58;1.00;;;;;;;20.90;57.01;100394.66;5050844;28;20774;-63
2023/07/28 11:43:26;;;;;;;1.33;0.98;;;;;;;20.98;56.62;100405.56;5048846;28;20195;-65
2023/07/28 11:45:54;;;;;;;1.00;0.90;;;;;;;21.04;56.36;100406.63;5054400;28;20133;-65
2023/07/28 11:48:22;;;;;;;1.40;0.93;;;;;;;21.09;56.19;100402.16;5055823;28;20065;-65
2023/07/28 11:50:53;;;;;;;1.58;1.00;;;;;;;21.15;55.91;100403.22;5050517;28;20056;-65
2023/07/28 11:53:21;;;;;;;1.88;1.00;;;;;;;21.18;55.95;100391.66;5059106;28;20047;-65
2023/07/28 11:55:49;;;;;;;1.70;1.10;;;;;;;21.22;55.88;100401.28;5053089;28;20041;-65
2023/07/28 11:58:20;;;;;;;3.42;1.88;;;;;;;21.26;55.42;100387.84;5043608;28;20680;-65
2023/07/28 12:00:51;;;;;;;2.88;1.80;;;;;;;21.30;55.19;100395.53;5054907;28;20133;-65
2023/07/28 12:03:19;;;;;;;2.13;1.40;;;;;;;21.33;54.89;100392.31;5049411;28;20037;-65
2023/07/28 12:06:06;;;;;;;2.13;1.30;;;;;;;21.39;53.81;100396.16;5016154;28;20049;-65
2023/07/28 12:08:37;;;;;;;2.00;1.10;;;;;;;21.39;54.79;100391.44;5015368;28;20045;-65
2023/07/28 12:11:06;;;;;;;3.30;1.70;;;;;;;21.42;54.82;100390.16;5019252;28;20052;-65
2023/07/28 12:13:48;;;;;;;2.42;1.40;;;;;;;21.46;54.19;100385.88;5022060;28;20053;-65
2023/07/28 12:16:40;;;;;;;3.47;1.80;;;;;;;21.47;54.20;100394.00;5019446;28;20187;-66
2023/07/28 12:19:12;;;;;;;3.90;1.92;;;;;;;21.52;54.90;100388.63;5008020;28;20064;-65
2023/07/28 12:21:42;;;;;;;2.50;1.60;;;;;;;21.60;54.59;100392.28;5023407;28;20056;-65
2023/07/28 12:24:10;;;;;;;2.10;1.13;;;;;;;21.63;54.22;100378.75;5021320;28;20218;-65
2023/07/28 12:26:38;;;;;;;1.48;1.10;;;;;;;21.67;53.99;100382.81;5019415;28;20048;-65
2023/07/28 12:29:08;;;;;;;1.98;1.30;;;;;;;21.70;53.71;100381.50;5022681;28;20049;-65
2023/07/28 12:31:39;;;;;;;1.90;1.10;;;;;;;21.72;53.49;100388.59;5021989;28;20064;-65
2023/07/28 12:34:10;;;;;;;1.05;0.88;;;;;;;21.72;53.13;100384.94;5022779;28;20041;-65